Time;durP1;ratioP1;P1;durP2;ratioP2;P2;SDS_P1;SDS_P2;PMS_P1;PMS_P2;Temp;Humidity;BMP_temperature;BMP_pressure;BME280_temperature;BME280_humidity;BME280_pressure;Samples;Min_cycle;Max_cycle;Signal;HPM_P1;HPM_P2
2021/04/18 00:00:21;;;;;;;5.17;4.67;;;;;;;4.85;92.88;99046.13;4785543;29;103893;-81
2021/04/18 00:02:50;;;;;;;4.90;4.40;;;;;;;4.75;92.37;99041.31;4792757;29;103724;-83
2021/04/18 00:05:19;;;;;;;4.60;4.07;;;;;;;5.00;91.47;99036.72;4792788;29;102912;-81
2021/04/18 00:07:46;;;;;;;4.63;4.23;;;;;;;5.04;90.59;99038.28;4792835;29;103069;-81
2021/04/18 00:10:15;;;;;;;4.73;4.33;;;;;;;4.90;90.84;99044.13;4790268;29;103567;-81
2021/04/18 00:12:42;;;;;;;4.97;4.57;;;;;;;4.88;92.02;99032.88;4791186;29;105009;-79
2021/04/18 00:15:11;;;;;;;4.53;4.13;;;;;;;4.95;92.46;99029.06;4775688;29;102978;-79
2021/04/18 00:17:39;;;;;;;4.33;3.90;;;;;;;5.14;91.23;99029.94;4791162;29;103152;-82
2021/04/18 00:20:07;;;;;;;4.93;4.53;;;;;;;4.99;91.59;99038.50;4787575;29;103274;-80
2021/04/18 00:22:35;;;;;;;5.27;4.80;;;;;;;4.84;94.27;99033.06;4777603;29;103661;-80
2021/04/18 00:25:03;;;;;;;5.80;5.20;;;;;;;4.85;94.09;99027.78;4783437;29;102963;-81
2021/04/18 00:27:31;;;;;;;5.77;5.17;;;;;;;4.86;94.50;99026.84;4812474;29;102828;-80
2021/04/18 00:29:59;;;;;;;8.23;6.27;;;;;;;4.67;93.47;99025.94;4805984;29;103694;-80
2021/04/18 00:32:26;;;;;;;8.17;7.37;;;;;;;4.62;93.73;99020.06;4794961;29;103656;-80
2021/04/18 00:34:53;;;;;;;7.13;6.43;;;;;;;4.60;93.40;99021.91;4794365;29;103196;-80
2021/04/18 00:37:20;;;;;;;6.40;5.80;;;;;;;4.53;93.55;99015.22;4794951;29;103304;-81
2021/04/18 00:39:47;;;;;;;6.30;5.40;;;;;;;4.54;93.34;99016.94;4794887;29;103827;-81
2021/04/18 00:42:16;;;;;;;7.00;6.30;;;;;;;4.57;92.92;99016.81;4794163;29;103047;-81
2021/04/18 00:44:44;;;;;;;7.73;6.00;;;;;;;4.61;93.06;99010.50;4794185;29;102965;-82
2021/04/18 00:47:12;;;;;;;6.37;5.00;;;;;;;4.83;92.55;99016.50;4795647;29;102997;-82
2021/04/18 00:49:39;;;;;;;5.90;5.30;;;;;;;4.70;92.12;99015.34;4797310;29;104111;-79
2021/04/18 00:52:06;;;;;;;6.10;5.50;;;;;;;4.65;93.29;99010.34;4812418;29;104694;-82
2021/04/18 00:54:33;;;;;;;6.60;5.20;;;;;;;4.69;93.44;99011.03;4812703;29;102631;-80
2021/04/18 00:57:01;;;;;;;4.23;3.87;;;;;;;4.82;92.47;99012.22;4826435;29;103131;-81
2021/04/18 00:59:28;;;;;;;4.73;4.07;;;;;;;4.96;91.57;99012.44;4804133;29;104850;-82
2021/04/18 01:01:56;;;;;;;3.97;3.53;;;;;;;5.09;90.91;99012.72;4796796;29;105479;-81
2021/04/18 01:04:24;;;;;;;4.23;3.83;;;;;;;5.16;90.46;99016.78;4798548;29;102967;-82
2021/04/18 01:06:52;;;;;;;4.20;3.80;;;;;;;5.16;89.86;99007.16;4810274;29;103502;-81
2021/04/18 01:09:19;;;;;;;5.47;4.70;;;;;;;5.12;90.06;99005.59;4826856;29;106109;-82
2021/04/18 01:11:47;;;;;;;4.70;4.30;;;;;;;5.11;90.61;99000.41;4802830;29;103723;-79
2021/04/18 01:14:14;;;;;;;6.07;5.10;;;;;;;4.93;90.57;98998.63;4811305;29;103162;-82
2021/04/18 01:16:45;;;;;;;5.50;4.93;;;;;;;4.96;90.86;98996.75;4803376;29;103143;-82
2021/04/18 01:19:13;;;;;;;5.07;4.53;;;;;;;5.12;90.35;98995.13;4810198;29;104480;-82
2021/04/18 01:21:43;;;;;;;5.37;4.87;;;;;;;5.09;89.63;98995.25;4797870;29;103833;-82
2021/04/18 01:24:42;;;;;;;4.20;3.80;;;;;;;5.22;89.93;98992.94;4797922;29;103338;-83
2021/04/18 01:27:37;;;;;;;5.93;4.87;;;;;;;4.90;90.49;98989.16;4816621;29;103219;-81
2021/04/18 01:30:06;;;;;;;4.37;3.97;;;;;;;5.16;90.26;98994.06;4800066;29;103839;-79
2021/04/18 01:32:33;;;;;;;3.67;3.37;;;;;;;5.34;89.59;98984.47;4812241;29;103138;-81
2021/04/18 01:35:01;;;;;;;4.90;4.50;;;;;;;5.12;90.00;98994.25;4813097;29;103141;-82
2021/04/18 01:37:29;;;;;;;4.17;3.77;;;;;;;5.33;89.15;98990.66;4824545;29;102797;-80
2021/04/18 01:39:56;;;;;;;4.90;4.50;;;;;;;5.33;89.79;98992.44;4811286;29;105637;-81
2021/04/18 01:42:24;;;;;;;5.50;5.00;;;;;;;5.19;89.75;98983.41;4812757;29;103547;-81
2021/04/18 01:44:52;;;;;;;6.97;6.10;;;;;;;4.86;90.62;98990.19;4796269;29;103195;-81
2021/04/18 01:47:20;;;;;;;5.40;4.50;;;;;;;4.92;92.05;98987.31;4796113;29;102799;-82
2021/04/18 01:49:47;;;;;;;5.47;4.97;;;;;;;4.95;91.62;98983.69;4804081;29;103120;-80
2021/04/18 01:52:14;;;;;;;4.73;4.33;;;;;;;4.98;91.09;98980.94;4794272;29;104596;-82
2021/04/18 01:54:43;;;;;;;5.80;4.90;;;;;;;5.08;90.55;98982.25;4768318;29;103447;-83
2021/04/18 01:57:10;;;;;;;5.37;4.87;;;;;;;5.03;91.26;98979.81;4744386;29;103170;-81
2021/04/18 01:59:43;;;;;;;4.67;4.23;;;;;;;5.05;90.84;98983.19;4747023;29;106567;-81
2021/04/18 02:02:43;;;;;;;4.67;4.27;;;;;;;5.00;91.10;98977.34;4795104;29;105689;-82
2021/04/18 02:05:24;;;;;;;5.67;5.17;;;;;;;5.01;91.71;98981.66;4791945;29;103039;-83
2021/04/18 02:07:52;;;;;;;5.10;4.70;;;;;;;5.08;91.34;98980.44;4796268;29;103011;-78
2021/04/18 02:10:22;;;;;;;5.80;5.30;;;;;;;5.01;91.16;98980.81;4787036;29;103704;-82
2021/04/18 02:12:49;;;;;;;6.33;5.20;;;;;;;4.96;91.54;98978.41;4793148;29;104233;-81
2021/04/18 02:15:20;;;;;;;6.77;5.40;;;;;;;4.96;91.82;98978.41;4792142;29;102654;-82
2021/04/18 02:17:48;;;;;;;5.77;5.27;;;;;;;4.82;92.53;98975.56;4788752;29;103413;-81
2021/04/18 02:20:17;;;;;;;6.73;6.10;;;;;;;4.60;94.01;98978.25;4794412;29;103767;-81
2021/04/18 02:22:45;;;;;;;6.93;6.27;;;;;;;4.49;94.53;98977.88;4785257;29;103299;-79
2021/04/18 02:25:14;;;;;;;6.20;5.60;;;;;;;4.56;95.12;98978.47;4767660;29;103018;-82
2021/04/18 02:27:44;;;;;;;6.40;5.80;;;;;;;4.49;95.36;98987.53;4780352;29;102618;-83
2021/04/18 02:30:23;;;;;;;6.97;6.27;;;;;;;4.38;96.32;98984.50;4776309;29;104529;-81
2021/04/18 02:32:51;;;;;;;7.07;6.43;;;;;;;4.37;97.26;98988.03;4793512;29;103108;-80
2021/04/18 02:35:18;;;;;;;6.63;6.03;;;;;;;4.35;97.07;98980.22;4762148;29;102592;-81
2021/04/18 02:37:46;;;;;;;7.53;6.50;;;;;;;4.52;96.16;98988.22;4793580;29;103309;-81
2021/04/18 02:40:16;;;;;;;6.90;6.20;;;;;;;4.56;96.31;98983.69;4790916;29;105625;-82
2021/04/18 02:42:46;;;;;;;6.80;6.20;;;;;;;4.52;94.55;98982.16;4776509;29;104419;-80
2021/04/18 02:45:15;;;;;;;6.70;6.10;;;;;;;4.54;94.53;98975.06;4793767;29;103020;-83
2021/04/18 02:47:49;;;;;;;7.10;6.40;;;;;;;4.48;94.84;98977.97;4793863;29;103358;-81
2021/04/18 02:50:18;;;;;;;6.27;5.50;;;;;;;4.67;94.22;98984.06;4787480;29;105056;-82
2021/04/18 02:52:48;;;;;;;6.70;6.10;;;;;;;4.77;93.01;98977.53;4786889;29;103816;-81
2021/04/18 02:55:15;;;;;;;8.27;5.30;;;;;;;4.74;93.45;98976.81;4776174;29;102694;-83
2021/04/18 02:57:56;;;;;;;6.43;5.83;;;;;;;4.65;93.25;98976.31;4791952;29;102675;-82
2021/04/18 03:00:25;;;;;;;7.03;6.43;;;;;;;4.66;93.16;98974.50;4775701;29;104072;-81
2021/04/18 03:02:52;;;;;;;6.37;5.77;;;;;;;4.68;93.19;98967.47;4792565;29;103710;-81
2021/04/18 03:05:21;;;;;;;6.50;5.90;;;;;;;4.75;92.61;98975.88;4792344;29;103119;-84
2021/04/18 03:07:57;;;;;;;7.03;6.03;;;;;;;4.80;92.91;98971.31;4776983;29;103381;-83
2021/04/18 03:10:24;;;;;;;7.70;6.40;;;;;;;4.57;93.67;98975.81;4786323;29;103363;-84
2021/04/18 03:12:52;;;;;;;7.13;6.40;;;;;;;4.63;92.97;98978.13;4781536;29;103432;-81
2021/04/18 03:15:20;;;;;;;7.73;7.03;;;;;;;4.58;93.69;98971.38;4776419;29;103066;-81
2021/04/18 03:17:51;;;;;;;8.17;6.57;;;;;;;4.67;93.98;98974.47;4775274;29;103662;-83
2021/04/18 03:20:19;;;;;;;7.90;6.67;;;;;;;4.57;94.66;98974.94;4788453;29;104020;-83
2021/04/18 03:22:48;;;;;;;6.83;6.23;;;;;;;4.76;94.07;98970.59;4765902;29;104563;-82
2021/04/18 03:25:16;;;;;;;7.33;6.63;;;;;;;4.66;93.54;98969.28;4761104;29;103119;-80
2021/04/18 03:27:46;;;;;;;7.10;6.13;;;;;;;4.72;93.77;98968.16;4792021;29;103115;-84
2021/04/18 03:30:23;;;;;;;7.43;6.73;;;;;;;4.61;94.71;98971.25;4781899;29;106378;-83
2021/04/18 03:32:54;;;;;;;7.83;7.03;;;;;;;4.52;95.42;98966.44;4792489;29;103257;-83
2021/04/18 03:35:23;;;;;;;6.40;5.80;;;;;;;4.63;95.00;98966.84;4791827;29;104507;-82
2021/04/18 03:37:53;;;;;;;8.00;7.13;;;;;;;4.67;94.94;98976.22;4789718;29;103040;-83
2021/04/18 03:40:21;;;;;;;7.03;6.37;;;;;;;4.75;94.64;98968.88;4771529;29;105024;-79
2021/04/18 03:42:49;;;;;;;6.70;6.00;;;;;;;4.77;94.41;98977.53;4783233;29;104236;-83
2021/04/18 03:45:22;;;;;;;7.30;6.63;;;;;;;4.71;94.42;98972.56;4774718;29;103720;-82
2021/04/18 03:47:54;;;;;;;8.70;6.80;;;;;;;4.63;94.62;98969.44;4778583;29;103248;-81
2021/04/18 03:50:24;;;;;;;7.30;6.70;;;;;;;4.60;94.75;98972.19;4781928;29;103236;-82
2021/04/18 03:53:09;;;;;;;8.00;7.20;;;;;;;4.66;94.95;98971.91;4792111;29;103716;-82
2021/04/18 03:55:41;;;;;;;7.27;6.57;;;;;;;4.70;94.56;98973.47;4791412;29;102938;-81
2021/04/18 03:58:08;;;;;;;7.10;6.40;;;;;;;4.75;93.84;98976.72;4792329;29;103094;-79
2021/04/18 04:00:40;;;;;;;7.13;6.50;;;;;;;4.85;93.22;98979.81;4792252;29;103007;-82
2021/04/18 04:03:08;;;;;;;7.83;7.10;;;;;;;4.79;93.17;98974.84;4791752;29;103203;-82
2021/04/18 04:05:39;;;;;;;9.97;6.47;;;;;;;4.81;93.26;98968.63;4805756;29;103133;-82
2021/04/18 04:08:10;;;;;;;6.93;6.27;;;;;;;4.82;93.34;98970.31;4794724;29;102992;-82
2021/04/18 04:10:38;;;;;;;7.33;6.60;;;;;;;4.77;93.15;98972.31;4804412;29;104151;-83
2021/04/18 04:13:05;;;;;;;7.67;6.87;;;;;;;4.77;93.08;98961.84;4775317;29;106509;-83
2021/04/18 04:15:35;;;;;;;7.60;6.93;;;;;;;4.73;93.84;98970.72;4814016;29;102837;-82
2021/04/18 04:18:04;;;;;;;9.17;7.63;;;;;;;4.62;93.57;98970.34;4803096;29;103662;-83
2021/04/18 04:20:51;;;;;;;9.73;7.67;;;;;;;4.57;95.08;98964.47;4779279;29;105110;-81
2021/04/18 04:23:45;;;;;;;7.70;7.00;;;;;;;4.73;94.35;98973.34;4791220;29;103885;-81
2021/04/18 04:26:12;;;;;;;8.53;6.90;;;;;;;4.90;93.21;98973.44;4795756;29;102964;-81
2021/04/18 04:28:39;;;;;;;7.83;6.77;;;;;;;4.88;92.25;98970.06;4795492;29;102977;-81
2021/04/18 04:31:06;;;;;;;8.37;7.50;;;;;;;4.73;93.98;98978.56;4795205;29;103890;-83
2021/04/18 04:33:36;;;;;;;8.37;7.20;;;;;;;4.83;93.64;98982.47;4794900;29;103698;-82
2021/04/18 04:36:05;;;;;;;8.50;7.73;;;;;;;4.81;92.76;98975.59;4795961;29;102829;-83
2021/04/18 04:38:32;;;;;;;7.40;6.70;;;;;;;5.01;92.70;98978.19;4795152;29;103011;-77
2021/04/18 04:41:00;;;;;;;5.97;5.37;;;;;;;5.04;93.18;98981.53;4792499;29;105189;-83
2021/04/18 04:43:27;;;;;;;7.73;7.03;;;;;;;4.91;94.08;98982.97;4793839;29;103185;-80
2021/04/18 04:45:54;;;;;;;8.63;7.57;;;;;;;4.92;93.89;98984.69;4783153;29;102873;-82
2021/04/18 04:48:21;;;;;;;6.70;6.10;;;;;;;5.08;94.10;98988.31;4776644;29;103340;-82
2021/04/18 04:50:50;;;;;;;8.67;7.63;;;;;;;5.01;92.81;98992.13;4805381;29;102990;-82
2021/04/18 04:53:17;;;;;;;9.17;8.27;;;;;;;4.84;93.92;98994.66;4812490;29;106168;-83
2021/04/18 04:55:46;;;;;;;7.60;6.90;;;;;;;4.93;94.06;98982.94;4813205;29;103213;-80
2021/04/18 04:58:13;;;;;;;8.63;7.87;;;;;;;4.92;94.03;98987.31;4796072;29;102946;-80
2021/04/18 05:00:41;;;;;;;9.03;7.67;;;;;;;5.00;93.40;98985.19;4813097;29;103141;-82
2021/04/18 05:03:08;;;;;;;8.40;7.57;;;;;;;5.14;93.04;98981.94;4812094;29;105488;-81
2021/04/18 05:05:36;;;;;;;9.53;7.40;;;;;;;4.70;93.32;98989.19;4813612;29;102672;-81
2021/04/18 05:08:05;;;;;;;7.87;7.17;;;;;;;4.87;93.30;98989.28;4813677;29;102934;-80
2021/04/18 05:10:32;;;;;;;8.87;7.97;;;;;;;4.90;93.64;98988.28;4817827;29;104954;-80
2021/04/18 05:12:59;;;;;;;9.80;8.60;;;;;;;4.84;93.05;98985.94;4812806;29;103234;-81
2021/04/18 05:15:26;;;;;;;9.13;8.23;;;;;;;4.74;93.67;98996.00;4824309;29;103448;-83
2021/04/18 05:17:53;;;;;;;8.43;7.63;;;;;;;4.69;94.13;98995.31;4805184;29;102826;-82
2021/04/18 05:20:21;;;;;;;8.60;7.90;;;;;;;4.95;93.44;99002.88;4795296;29;107538;-81
2021/04/18 05:22:48;;;;;;;9.37;8.47;;;;;;;5.00;92.41;99000.03;4810380;29;105525;-82
2021/04/18 05:25:16;;;;;;;7.53;6.83;;;;;;;5.03;92.37;99005.16;4812660;29;103022;-83
2021/04/18 05:27:43;;;;;;;8.43;7.57;;;;;;;4.98;93.34;99005.38;4812747;29;102650;-82
2021/04/18 05:30:12;;;;;;;8.47;7.67;;;;;;;5.09;93.09;99003.13;4810089;29;103820;-81
2021/04/18 05:32:39;;;;;;;8.07;7.27;;;;;;;5.18;92.18;99005.31;4811914;29;104522;-81
2021/04/18 05:35:09;;;;;;;9.17;8.20;;;;;;;5.28;91.56;99004.91;4794939;29;103006;-82
2021/04/18 05:37:36;;;;;;;8.67;7.00;;;;;;;5.42;91.29;99012.97;4796177;29;103188;-78
2021/04/18 05:40:05;;;;;;;9.17;8.30;;;;;;;5.28;92.20;99010.97;4812839;29;105926;-78
2021/04/18 05:42:33;;;;;;;11.07;8.80;;;;;;;5.07;91.67;99015.44;4812944;29;104438;-81
2021/04/18 05:45:01;;;;;;;10.17;9.17;;;;;;;5.17;91.31;99014.09;4812930;29;103114;-80
2021/04/18 05:47:28;;;;;;;9.60;8.60;;;;;;;5.09;92.56;99016.22;4809132;29;103085;-84
2021/04/18 05:49:55;;;;;;;9.33;8.33;;;;;;;5.02;93.70;99006.94;4807977;29;104599;-86
2021/04/18 05:52:23;;;;;;;12.63;9.23;;;;;;;4.94;93.14;99006.41;4793640;29;103662;-84
2021/04/18 05:54:51;;;;;;;9.63;8.73;;;;;;;4.95;92.74;99010.72;4793518;29;103034;-82
2021/04/18 05:57:18;;;;;;;8.73;7.83;;;;;;;5.05;92.35;99016.41;4776384;29;103170;-89
2021/04/18 05:59:46;;;;;;;8.50;7.70;;;;;;;5.26;92.13;99008.44;4791498;29;104627;-90
2021/04/18 06:02:13;;;;;;;7.17;6.47;;;;;;;5.40;91.56;99010.41;4777295;29;105972;-83
2021/04/18 06:04:41;;;;;;;8.63;7.73;;;;;;;5.56;90.03;99015.78;4793775;29;103205;-82
2021/04/18 06:07:09;;;;;;;9.60;8.70;;;;;;;5.65;88.49;99010.09;4777974;29;103134;-82
2021/04/18 06:09:36;;;;;;;10.40;9.40;;;;;;;5.35;88.52;99011.53;4797971;29;104287;-84
2021/04/18 06:12:03;;;;;;;8.83;7.97;;;;;;;5.67;89.07;99010.91;4812713;29;103698;-85
2021/04/18 06:14:30;;;;;;;8.87;8.00;;;;;;;5.96;88.57;99020.84;4794211;29;103280;-86
2021/04/18 06:16:58;;;;;;;8.33;7.47;;;;;;;6.10;87.63;99007.06;4794031;29;103296;-82
2021/04/18 06:19:25;;;;;;;7.77;7.07;;;;;;;6.20;86.80;99005.69;4793037;29;103839;-79
2021/04/18 06:21:52;;;;;;;9.73;8.83;;;;;;;6.24;87.53;99009.84;4792278;29;104906;-77
2021/04/18 06:24:19;;;;;;;6.73;6.13;;;;;;;6.34;87.08;98997.97;4791923;29;103355;-78
2021/04/18 06:26:46;;;;;;;7.47;6.77;;;;;;;6.43;86.52;99007.16;4794406;29;102960;-79
2021/04/18 06:29:13;;;;;;;7.13;6.43;;;;;;;6.53;85.97;99011.00;4793623;29;103708;-79
2021/04/18 06:31:40;;;;;;;6.83;6.23;;;;;;;6.55;85.83;99003.91;4793354;29;103723;-77
2021/04/18 06:34:08;;;;;;;9.13;8.33;;;;;;;6.48;84.80;99008.63;4758432;29;102985;-79
2021/04/18 06:36:36;;;;;;;8.40;7.60;;;;;;;6.60;84.48;99012.38;4787636;29;103072;-77
2021/04/18 06:39:04;;;;;;;8.87;7.97;;;;;;;6.72;84.65;99019.63;4782860;29;104857;-78
2021/04/18 06:41:35;;;;;;;9.47;8.57;;;;;;;6.08;85.81;99009.78;4784038;29;104793;-80
2021/04/18 06:44:02;;;;;;;10.00;9.10;;;;;;;5.86;87.03;99018.75;4775516;29;102906;-78
2021/04/18 06:46:30;;;;;;;7.70;7.00;;;;;;;6.24;87.23;99015.09;4759134;29;102996;-81
2021/04/18 06:48:59;;;;;;;7.30;6.60;;;;;;;6.67;86.40;99019.88;4763996;29;104347;-77
2021/04/18 06:51:27;;;;;;;10.30;9.40;;;;;;;6.78;86.12;99017.56;4774696;29;105255;-81
2021/04/18 06:53:54;;;;;;;9.73;8.83;;;;;;;6.77;85.83;99009.72;4775829;29;103157;-81
2021/04/18 06:56:21;;;;;;;8.87;8.07;;;;;;;6.86;84.99;99017.13;4780968;29;103481;-80
2021/04/18 06:58:57;;;;;;;9.37;8.47;;;;;;;7.06;83.62;99011.69;4793341;29;103173;-81
2021/04/18 07:01:24;;;;;;;8.57;7.67;;;;;;;7.14;83.11;99016.53;4792683;29;103864;-80
2021/04/18 07:04:17;;;;;;;8.77;7.97;;;;;;;7.08;82.76;99012.44;4786553;29;103023;-79
2021/04/18 07:06:47;;;;;;;9.13;8.20;;;;;;;7.06;82.60;99014.31;4794250;29;102973;-81
2021/04/18 07:09:16;;;;;;;8.03;7.33;;;;;;;7.03;83.44;99014.47;4794615;29;104187;-81
2021/04/18 07:11:45;;;;;;;7.57;6.87;;;;;;;7.27;82.99;99010.53;4797552;29;104032;-80
2021/04/18 07:14:26;;;;;;;8.57;7.87;;;;;;;6.97;82.12;99017.44;4800081;29;103190;-80
2021/04/18 07:17:04;;;;;;;9.27;8.23;;;;;;;7.34;82.15;99011.91;4801754;29;102849;-80
2021/04/18 07:19:32;;;;;;;8.77;7.87;;;;;;;7.56;81.27;99012.44;4800911;29;103231;-81
2021/04/18 07:22:01;;;;;;;7.90;7.10;;;;;;;7.66;82.14;99009.31;4798196;29;103084;-81
2021/04/18 07:24:29;;;;;;;10.23;9.00;;;;;;;7.57;81.64;99014.13;4798696;29;103428;-81
2021/04/18 07:26:58;;;;;;;7.80;7.10;;;;;;;7.79;82.20;99011.16;4795470;29;102767;-81
2021/04/18 07:29:26;;;;;;;8.40;7.70;;;;;;;7.77;80.82;99009.56;4792260;29;104009;-82
2021/04/18 07:31:53;;;;;;;7.90;7.20;;;;;;;8.01;79.72;99000.25;4791804;29;105567;-82
2021/04/18 07:34:22;;;;;;;10.33;9.33;;;;;;;8.00;79.73;99001.22;4792716;29;102852;-81
2021/04/18 07:37:05;;;;;;;9.77;8.87;;;;;;;7.65;80.54;99000.56;4776031;29;103268;-83
2021/04/18 07:39:43;;;;;;;8.50;7.77;;;;;;;7.89;77.87;99008.84;4795306;29;103266;-84
2021/04/18 07:42:35;;;;;;;9.60;8.63;;;;;;;7.67;79.80;98998.69;4781981;29;103166;-81
2021/04/18 07:45:06;;;;;;;9.80;8.80;;;;;;;7.54;77.99;99006.41;4761610;29;102978;-82
2021/04/18 07:47:36;;;;;;;9.23;8.17;;;;;;;7.72;78.37;99001.06;4789755;29;102494;-82
2021/04/18 07:50:07;;;;;;;8.10;7.40;;;;;;;7.88;77.78;99008.03;4754344;29;104853;-79
2021/04/18 07:52:36;;;;;;;9.33;8.43;;;;;;;7.74;77.46;99007.09;4784817;29;104895;-84
2021/04/18 07:55:05;;;;;;;9.10;8.20;;;;;;;7.53;79.08;99004.72;4782244;29;103255;-82
2021/04/18 07:57:33;;;;;;;12.23;9.10;;;;;;;7.81;78.41;99000.53;4773458;29;103243;-82
2021/04/18 08:00:00;;;;;;;8.67;7.83;;;;;;;8.01;77.73;99003.75;4788542;29;104002;-83
2021/04/18 08:02:27;;;;;;;9.53;8.63;;;;;;;8.16;77.23;99005.50;4790861;29;103685;-82
2021/04/18 08:04:56;;;;;;;8.87;7.97;;;;;;;8.00;76.69;99006.47;4794949;29;103220;-79
2021/04/18 08:07:24;;;;;;;8.30;7.50;;;;;;;8.01;77.69;99000.25;4779336;29;102972;-80
2021/04/18 08:10:21;;;;;;;10.40;8.17;;;;;;;8.26;75.89;99005.81;4768230;29;103902;-82
2021/04/18 08:13:08;;;;;;;6.70;6.00;;;;;;;8.12;78.10;99001.34;4786824;29;103801;-81
2021/04/18 08:15:39;;;;;;;10.50;8.43;;;;;;;8.15;75.72;99005.56;4791407;29;103207;-79
2021/04/18 08:18:09;;;;;;;8.53;7.63;;;;;;;8.19;76.92;99001.84;4752699;29;103252;-79
2021/04/18 08:20:39;;;;;;;7.90;6.67;;;;;;;7.93;76.04;99000.69;4779973;29;104088;-81
2021/04/18 08:23:09;;;;;;;7.73;6.57;;;;;;;7.64;77.18;99008.50;4783599;29;103760;-79
2021/04/18 08:25:38;;;;;;;6.80;6.13;;;;;;;8.23;75.78;99000.72;4770833;29;103200;-80
2021/04/18 08:28:09;;;;;;;8.30;7.50;;;;;;;7.99;73.77;99004.78;4771332;29;103591;-79
2021/04/18 08:31:00;;;;;;;9.33;6.77;;;;;;;8.18;74.86;99006.25;4780098;29;103587;-80
2021/04/18 08:33:52;;;;;;;6.50;5.80;;;;;;;8.64;72.78;99004.44;4783446;29;105380;-79
2021/04/18 08:36:22;;;;;;;8.40;6.77;;;;;;;8.71;71.44;99012.81;4761286;29;103342;-81
2021/04/18 08:39:10;;;;;;;7.90;7.10;;;;;;;8.13;72.17;99016.22;4788253;29;103209;-80
2021/04/18 08:41:41;;;;;;;7.17;6.47;;;;;;;8.46;72.88;99020.47;4787994;29;103766;-80
2021/04/18 08:44:15;;;;;;;7.60;6.87;;;;;;;8.48;73.76;99018.59;4787884;29;103385;-80
2021/04/18 08:46:43;;;;;;;9.60;7.03;;;;;;;8.86;72.50;99014.53;4789359;29;103198;-83
2021/04/18 08:49:10;;;;;;;6.77;6.07;;;;;;;8.50;71.53;99017.59;4786808;29;104569;-82
2021/04/18 08:51:38;;;;;;;9.53;6.93;;;;;;;8.36;70.34;99019.31;4784176;29;103995;-80
2021/04/18 08:54:06;;;;;;;7.60;6.90;;;;;;;8.44;71.44;99020.56;4776399;29;103650;-80
2021/04/18 08:56:44;;;;;;;9.43;6.60;;;;;;;8.76;71.53;99012.56;4771500;29;103320;-81
2021/04/18 08:59:12;;;;;;;9.43;7.83;;;;;;;9.05;72.78;99009.00;4769350;29;103412;-81
2021/04/18 09:01:52;;;;;;;6.67;5.97;;;;;;;9.12;70.65;99005.06;4786557;29;104471;-80
2021/04/18 09:04:20;;;;;;;6.47;5.83;;;;;;;9.45;70.24;99013.50;4765143;29;105019;-80
2021/04/18 09:06:48;;;;;;;9.30;6.97;;;;;;;9.10;69.41;99017.47;4773118;29;103296;-80
2021/04/18 09:09:17;;;;;;;7.57;6.70;;;;;;;9.26;69.97;99018.22;4764432;29;103305;-80
2021/04/18 09:11:47;;;;;;;7.77;6.80;;;;;;;8.90;68.33;99017.84;4759332;29;107797;-79
2021/04/18 09:14:24;;;;;;;9.03;6.60;;;;;;;8.11;70.76;99017.25;4787335;29;104402;-80
2021/04/18 09:16:52;;;;;;;7.63;6.73;;;;;;;8.17;70.09;99017.72;4788025;29;103176;-81
2021/04/18 09:19:31;;;;;;;7.57;6.77;;;;;;;8.09;73.77;99017.31;4784488;29;103694;-79
2021/04/18 09:22:06;;;;;;;6.77;6.03;;;;;;;9.01;71.46;99018.88;4776901;29;104281;-80
2021/04/18 09:24:36;;;;;;;9.97;7.10;;;;;;;8.05;71.84;99025.47;4760141;29;104306;-78
2021/04/18 09:27:07;;;;;;;9.13;6.53;;;;;;;9.01;71.21;99016.22;4772347;29;103232;-79
2021/04/18 09:29:39;;;;;;;10.00;6.97;;;;;;;8.80;68.20;99017.53;4766227;29;103396;-78
2021/04/18 09:32:10;;;;;;;8.57;6.43;;;;;;;9.18;67.93;99016.03;4794064;29;105376;-78
2021/04/18 09:34:39;;;;;;;7.43;6.20;;;;;;;9.76;67.59;99015.91;4797226;29;104647;-79
2021/04/18 09:37:09;;;;;;;7.17;6.43;;;;;;;10.13;66.65;99013.53;4804603;29;103435;-79
2021/04/18 09:39:37;;;;;;;7.87;5.50;;;;;;;10.23;66.54;99019.91;4788788;29;105332;-79
2021/04/18 09:42:07;;;;;;;6.87;5.47;;;;;;;10.43;65.94;99020.28;4776489;29;103398;-80
2021/04/18 09:44:39;;;;;;;9.80;6.67;;;;;;;10.28;66.30;99009.88;4743807;29;104189;-79
2021/04/18 09:47:21;;;;;;;7.47;6.27;;;;;;;10.57;64.87;99011.44;4783802;29;103453;-80
2021/04/18 09:49:57;;;;;;;9.87;7.40;;;;;;;10.47;64.23;99020.91;4790476;29;104091;-80
2021/04/18 09:52:29;;;;;;;8.23;7.43;;;;;;;10.21;65.01;99011.25;4788767;29;103717;-80
2021/04/18 09:55:14;;;;;;;7.50;6.67;;;;;;;10.68;64.77;99019.47;4787922;29;103648;-79
2021/04/18 09:57:45;;;;;;;6.93;6.17;;;;;;;10.89;63.48;99018.00;4783947;29;103212;-80
2021/04/18 10:00:16;;;;;;;8.07;6.50;;;;;;;10.83;65.69;99018.44;4758043;29;103317;-81
2021/04/18 10:02:58;;;;;;;7.47;6.63;;;;;;;10.56;64.50;99019.44;4778546;29;103866;-81
2021/04/18 10:05:26;;;;;;;9.37;8.27;;;;;;;9.11;65.62;99021.78;4779384;29;105121;-82
2021/04/18 10:08:15;;;;;;;8.87;7.27;;;;;;;9.52;67.33;99022.69;4782917;29;103412;-82
2021/04/18 10:10:42;;;;;;;8.10;7.27;;;;;;;10.30;65.56;99014.09;4785415;29;104172;-84
2021/04/18 10:13:11;;;;;;;7.67;6.90;;;;;;;10.10;63.33;99006.66;4786452;29;103810;-82
2021/04/18 10:15:51;;;;;;;7.87;7.07;;;;;;;11.09;63.10;99010.53;4793292;29;105341;-81
2021/04/18 10:18:20;;;;;;;11.63;7.40;;;;;;;10.99;62.42;99019.09;4792813;29;102909;-81
2021/04/18 10:20:49;;;;;;;8.37;7.53;;;;;;;11.37;62.61;99012.91;4766555;29;102912;-80
2021/04/18 10:23:19;;;;;;;7.60;6.60;;;;;;;11.55;62.49;99008.97;4770800;29;105463;-80
2021/04/18 10:25:47;;;;;;;7.30;6.57;;;;;;;11.77;61.81;99006.50;4776806;29;104727;-79
2021/04/18 10:28:14;;;;;;;8.67;7.10;;;;;;;11.61;60.42;99004.09;4797994;29;103184;-79
2021/04/18 10:30:42;;;;;;;7.87;6.93;;;;;;;11.60;61.04;99007.69;4778323;29;103300;-80
2021/04/18 10:33:09;;;;;;;9.80;7.40;;;;;;;11.18;62.34;99001.94;4795368;29;103289;-80
2021/04/18 10:35:37;;;;;;;10.40;7.90;;;;;;;11.18;62.17;99007.22;4798627;29;104800;-82
2021/04/18 10:38:05;;;;;;;9.47;7.60;;;;;;;11.25;62.39;98997.91;4795835;29;102954;-81
2021/04/18 10:40:32;;;;;;;9.07;7.03;;;;;;;11.24;61.96;99001.50;4797949;29;104707;-84
2021/04/18 10:42:59;;;;;;;9.17;7.00;;;;;;;11.04;60.56;99001.09;4797720;29;103806;-82
2021/04/18 10:45:28;;;;;;;8.97;7.60;;;;;;;10.82;62.30;98995.59;4798918;29;104811;-84
2021/04/18 10:47:55;;;;;;;8.50;6.63;;;;;;;11.30;64.42;98996.63;4803836;29;103175;-81
2021/04/18 10:50:23;;;;;;;8.57;7.67;;;;;;;11.46;61.45;98991.09;4781871;29;103402;-86
2021/04/18 10:52:50;;;;;;;7.13;6.27;;;;;;;11.16;61.91;98990.63;4810418;29;103741;-82
2021/04/18 10:55:19;;;;;;;9.20;7.27;;;;;;;11.97;60.98;98986.53;4811571;29;103108;-77
2021/04/18 10:57:46;;;;;;;8.40;7.40;;;;;;;12.12;61.45;98991.56;4809146;29;103089;-76
2021/04/18 11:00:14;;;;;;;9.63;7.13;;;;;;;11.44;58.48;98987.72;4807675;29;103038;-77
2021/04/18 11:02:42;;;;;;;22.87;20.80;;;;;;;11.60;60.44;98983.00;4809448;29;104186;-77
2021/04/18 11:05:11;;;;;;;25.13;22.33;;;;;;;12.18;59.15;98975.16;4809623;29;103904;-78
2021/04/18 11:07:38;;;;;;;10.37;7.43;;;;;;;12.29;57.94;98981.50;4811486;29;103011;-79
2021/04/18 11:10:08;;;;;;;7.53;6.83;;;;;;;11.72;60.35;98981.31;4817805;29;103036;-78
2021/04/18 11:12:37;;;;;;;8.77;7.87;;;;;;;12.19;58.16;98973.38;4812806;29;104745;-81
2021/04/18 11:15:05;;;;;;;10.53;9.13;;;;;;;12.14;57.95;98973.72;4821447;29;105629;-74
2021/04/18 11:17:33;;;;;;;8.70;7.80;;;;;;;12.39;58.69;98975.38;4810348;29;103251;-81
2021/04/18 11:20:00;;;;;;;10.80;7.50;;;;;;;11.98;59.70;98969.69;4807474;29;103248;-80
2021/04/18 11:22:28;;;;;;;6.73;6.10;;;;;;;12.30;59.32;98980.50;4795467;29;104916;-81
2021/04/18 11:24:59;;;;;;;7.00;6.40;;;;;;;12.06;59.33;98976.09;4795158;29;104286;-79
2021/04/18 11:27:28;;;;;;;9.97;8.97;;;;;;;11.39;59.42;98973.97;4809816;29;102939;-80
2021/04/18 11:29:57;;;;;;;9.73;7.70;;;;;;;10.31;62.75;98988.56;4811764;29;102961;-77
2021/04/18 11:32:28;;;;;;;8.10;7.30;;;;;;;10.57;62.66;98985.00;4795161;29;103875;-82
2021/04/18 11:35:33;;;;;;;9.03;7.23;;;;;;;11.07;61.82;98982.38;4810763;29;106153;-83
2021/04/18 11:38:01;;;;;;;7.53;6.57;;;;;;;11.18;62.85;98981.63;4796289;29;103181;-85
2021/04/18 11:40:29;;;;;;;8.37;7.53;;;;;;;10.23;63.60;98985.56;4808515;29;103083;-85
2021/04/18 11:43:00;;;;;;;9.70;7.87;;;;;;;10.44;62.55;98982.34;4808346;29;103366;-85
2021/04/18 11:45:28;;;;;;;9.90;8.03;;;;;;;10.67;63.05;98980.78;4809509;29;103700;-84